Time;durP1;ratioP1;P1;durP2;ratioP2;P2;SDS_P1;SDS_P2;PMS_P1;PMS_P2;Temp;Humidity;BMP_temperature;BMP_pressure;BME280_temperature;BME280_humidity;BME280_pressure;Samples;Min_cycle;Max_cycle;Signal;HPM_P1;HPM_P2
2022/03/09 00:00:02;;;;;;;;;;;5.90;37.60;;;;;;5057700;28;19920;-88
2022/03/09 00:02:27;;;;;;;;;;;5.90;37.80;;;;;;5052915;28;20246;-88
2022/03/09 00:04:53;;;;;;;;;;;5.80;38.00;;;;;;5047333;28;19915;-87
2022/03/09 00:07:19;;;;;;;;;;;5.80;38.00;;;;;;5055795;28;19909;-87
2022/03/09 00:09:44;;;;;;;;;;;5.80;37.90;;;;;;5070585;28;19926;-88
2022/03/09 00:12:09;;;;;;;;;;;5.80;38.10;;;;;;5042617;28;20249;-87
2022/03/09 00:14:35;;;;;;;;;;;5.70;38.10;;;;;;5072157;28;20415;-88
2022/03/09 00:17:00;;;;;;;;;;;5.70;38.00;;;;;;5071039;28;20376;-88
2022/03/09 00:19:26;;;;;;;;;;;5.70;38.10;;;;;;5047431;28;19947;-88
2022/03/09 00:21:51;;;;;;;;;;;5.70;38.50;;;;;;5050487;28;20395;-88
2022/03/09 00:24:18;;;;;;;;;;;5.70;38.70;;;;;;5045448;28;19921;-87
2022/03/09 00:26:44;;;;;;;;;;;5.70;38.60;;;;;;5045461;28;19908;-88
2022/03/09 00:29:09;;;;;;;;;;;5.70;38.50;;;;;;5045385;28;19920;-87
2022/03/09 00:31:35;;;;;;;;;;;5.60;38.40;;;;;;5041182;28;19909;-86
2022/03/09 00:34:00;;;;;;;;;;;5.60;38.40;;;;;;5065496;28;20079;-88
2022/03/09 00:36:26;;;;;;;;;;;5.60;38.50;;;;;;5065186;28;19923;-88
2022/03/09 00:38:51;;;;;;;;;;;5.50;38.70;;;;;;5041078;28;20332;-87
2022/03/09 00:41:17;;;;;;;;;;;5.40;38.70;;;;;;5065894;28;19923;-88
2022/03/09 00:43:42;;;;;;;;;;;5.30;38.70;;;;;;5064117;28;19963;-87
2022/03/09 00:46:08;;;;;;;;;;;5.20;38.60;;;;;;5046273;28;19917;-88
2022/03/09 00:48:34;;;;;;;;;;;5.00;38.60;;;;;;5044897;28;19913;-88
2022/03/09 00:50:59;;;;;;;;;;;4.90;38.60;;;;;;5053222;28;20003;-88
2022/03/09 00:53:25;;;;;;;;;;;4.80;38.80;;;;;;5067016;28;19968;-87
2022/03/09 00:55:50;;;;;;;;;;;4.70;39.00;;;;;;5040704;28;19921;-87
2022/03/09 00:58:16;;;;;;;;;;;4.70;39.20;;;;;;5065511;28;20352;-87
2022/03/09 01:00:41;;;;;;;;;;;4.60;39.30;;;;;;5062070;28;19970;-88
2022/03/09 01:03:07;;;;;;;;;;;4.60;39.40;;;;;;5047895;28;19995;-89
2022/03/09 01:05:32;;;;;;;;;;;4.60;39.60;;;;;;5053249;28;19925;-89
2022/03/09 01:07:58;;;;;;;;;;;4.60;39.90;;;;;;5058793;28;19909;-88
2022/03/09 01:10:23;;;;;;;;;;;4.60;40.10;;;;;;5062695;28;19916;-88
2022/03/09 01:12:49;;;;;;;;;;;4.60;40.30;;;;;;5054438;28;19970;-87
2022/03/09 01:15:14;;;;;;;;;;;4.60;40.30;;;;;;5059287;28;19917;-86
2022/03/09 01:17:39;;;;;;;;;;;4.60;40.30;;;;;;5045043;28;19923;-87
2022/03/09 01:20:05;;;;;;;;;;;4.60;40.60;;;;;;5062022;28;19977;-88
2022/03/09 01:22:32;;;;;;;;;;;4.50;40.40;;;;;;5056711;28;19913;-88
2022/03/09 01:24:57;;;;;;;;;;;4.50;40.50;;;;;;5056642;28;19928;-87
2022/03/09 01:27:23;;;;;;;;;;;4.40;40.70;;;;;;5055878;28;20284;-87
2022/03/09 01:29:48;;;;;;;;;;;4.50;40.70;;;;;;5073817;28;20340;-87
2022/03/09 01:32:14;;;;;;;;;;;4.50;40.60;;;;;;5056055;28;19915;-88
2022/03/09 01:34:39;;;;;;;;;;;4.40;40.50;;;;;;5052090;28;20268;-88
2022/03/09 01:37:05;;;;;;;;;;;4.30;40.50;;;;;;5036274;28;19959;-87
2022/03/09 01:39:30;;;;;;;;;;;4.30;40.40;;;;;;5064409;28;19916;-88
2022/03/09 01:41:56;;;;;;;;;;;4.20;40.60;;;;;;5058511;28;20280;-87
2022/03/09 01:44:22;;;;;;;;;;;4.10;40.70;;;;;;5077842;28;19954;-88
2022/03/09 01:46:49;;;;;;;;;;;4.00;40.70;;;;;;5078471;28;19919;-88
2022/03/09 01:49:15;;;;;;;;;;;4.00;40.80;;;;;;5078179;28;19913;-89
2022/03/09 01:51:41;;;;;;;;;;;3.90;40.80;;;;;;5043297;28;19924;-88
2022/03/09 01:54:07;;;;;;;;;;;3.80;40.90;;;;;;5060144;28;20013;-89
2022/03/09 01:56:33;;;;;;;;;;;3.90;41.20;;;;;;5059983;28;19920;-88
2022/03/09 01:59:00;;;;;;;;;;;3.80;41.30;;;;;;5047630;28;20338;-87
2022/03/09 02:01:26;;;;;;;;;;;3.80;41.30;;;;;;5078021;28;19950;-88
2022/03/09 02:03:51;;;;;;;;;;;3.80;41.40;;;;;;5078935;28;19912;-87
2022/03/09 02:06:17;;;;;;;;;;;3.80;41.50;;;;;;5078396;28;19920;-88
2022/03/09 02:11:28;;;;;;;;;;;3.80;41.50;;;;;;5078665;28;19924;-87
2022/03/09 02:13:53;;;;;;;;;;;3.80;41.70;;;;;;5059431;28;20311;-87
2022/03/09 02:16:18;;;;;;;;;;;3.80;42.00;;;;;;5059440;28;19912;-88
2022/03/09 02:18:44;;;;;;;;;;;3.80;42.30;;;;;;5059246;28;20376;-88
2022/03/09 02:21:11;;;;;;;;;;;3.70;42.00;;;;;;5059235;28;19913;-88
2022/03/09 02:23:36;;;;;;;;;;;3.70;42.10;;;;;;5059180;28;20356;-87
2022/03/09 02:26:02;;;;;;;;;;;3.70;42.00;;;;;;5077369;28;19912;-88
2022/03/09 02:28:27;;;;;;;;;;;3.60;41.90;;;;;;5077613;28;19917;-88
2022/03/09 02:30:56;;;;;;;;;;;3.60;42.20;;;;;;5059281;28;20003;-87
2022/03/09 02:33:22;;;;;;;;;;;3.50;42.30;;;;;;5076974;28;19917;-87
2022/03/09 02:35:47;;;;;;;;;;;3.50;42.40;;;;;;5069516;28;19920;-88
2022/03/09 02:38:13;;;;;;;;;;;3.40;42.30;;;;;;5058675;28;20261;-87
2022/03/09 02:40:40;;;;;;;;;;;3.30;42.20;;;;;;5076696;28;20272;-87
2022/03/09 02:43:07;;;;;;;;;;;3.30;42.10;;;;;;5058539;28;19921;-87
2022/03/09 02:45:32;;;;;;;;;;;3.20;42.20;;;;;;5039600;28;19913;-88
2022/03/09 02:47:57;;;;;;;;;;;3.10;42.50;;;;;;5057479;28;19917;-88
2022/03/09 02:50:23;;;;;;;;;;;3.10;42.60;;;;;;5050192;28;19917;-88
2022/03/09 02:52:48;;;;;;;;;;;3.00;42.50;;;;;;5039793;28;19972;-88
2022/03/09 02:55:14;;;;;;;;;;;3.00;42.40;;;;;;5055979;28;20012;-86
2022/03/09 02:57:40;;;;;;;;;;;3.00;42.60;;;;;;5038175;28;19920;-86
2022/03/09 03:00:08;;;;;;;;;;;2.90;42.70;;;;;;5038636;28;19920;-87
2022/03/09 03:02:35;;;;;;;;;;;2.90;42.80;;;;;;5038509;28;19917;-88
2022/03/09 03:05:00;;;;;;;;;;;2.80;42.90;;;;;;5037680;28;19917;-88
2022/03/09 03:07:26;;;;;;;;;;;2.90;43.10;;;;;;5038618;28;19924;-86
2022/03/09 03:09:51;;;;;;;;;;;2.90;43.20;;;;;;5038369;28;19917;-87
2022/03/09 03:12:18;;;;;;;;;;;2.90;43.50;;;;;;5038033;28;19927;-87
2022/03/09 03:14:44;;;;;;;;;;;2.90;43.60;;;;;;5055886;28;20011;-87
2022/03/09 03:17:09;;;;;;;;;;;2.90;43.60;;;;;;5038542;28;19967;-88
2022/03/09 03:19:34;;;;;;;;;;;2.90;43.40;;;;;;5038415;28;19912;-89
2022/03/09 03:22:00;;;;;;;;;;;2.90;43.40;;;;;;5058076;28;19925;-90
2022/03/09 03:24:27;;;;;;;;;;;2.90;43.70;;;;;;5037983;28;19962;-89
2022/03/09 03:26:52;;;;;;;;;;;3.00;43.80;;;;;;5049247;28;19924;-90
2022/03/09 03:29:18;;;;;;;;;;;2.90;43.70;;;;;;5057283;28;19917;-90
2022/03/09 03:31:43;;;;;;;;;;;3.00;43.90;;;;;;5021017;28;19916;-89
2022/03/09 03:34:09;;;;;;;;;;;3.00;44.10;;;;;;5039065;28;19913;-90
2022/03/09 03:36:34;;;;;;;;;;;3.00;44.10;;;;;;5050588;28;19974;-90
2022/03/09 03:39:00;;;;;;;;;;;3.00;44.10;;;;;;5060759;28;19999;-90
2022/03/09 03:41:25;;;;;;;;;;;3.00;44.10;;;;;;5043829;28;20049;-90
2022/03/09 03:43:52;;;;;;;;;;;3.00;43.90;;;;;;5060317;28;20265;-90
2022/03/09 03:46:17;;;;;;;;;;;3.00;43.80;;;;;;5060782;28;19912;-89
2022/03/09 03:48:43;;;;;;;;;;;2.90;43.70;;;;;;5050605;28;19913;-89
2022/03/09 03:51:08;;;;;;;;;;;2.90;43.70;;;;;;5037570;28;19917;-90
2022/03/09 03:53:34;;;;;;;;;;;2.80;43.70;;;;;;5061284;28;20369;-89
2022/03/09 03:55:59;;;;;;;;;;;2.80;43.80;;;;;;5060924;28;19982;-89
2022/03/09 03:58:25;;;;;;;;;;;2.70;43.80;;;;;;5061076;28;19923;-89
2022/03/09 04:00:50;;;;;;;;;;;2.70;43.80;;;;;;5060368;28;19909;-90
2022/03/09 04:03:16;;;;;;;;;;;2.60;43.80;;;;;;5059596;28;19924;-89
2022/03/09 04:05:41;;;;;;;;;;;2.60;44.10;;;;;;5041638;28;19920;-91
2022/03/09 04:08:07;;;;;;;;;;;2.60;44.30;;;;;;5061994;28;19916;-90
2022/03/09 04:10:32;;;;;;;;;;;2.50;44.40;;;;;;5043706;28;19909;-89
2022/03/09 04:13:00;;;;;;;;;;;2.60;44.40;;;;;;5041819;28;20012;-89
2022/03/09 04:15:26;;;;;;;;;;;2.50;44.40;;;;;;5062794;28;19963;-90
2022/03/09 04:17:53;;;;;;;;;;;2.50;44.50;;;;;;5044139;28;19924;-90
2022/03/09 04:20:18;;;;;;;;;;;2.50;44.60;;;;;;5043683;28;19920;-91
2022/03/09 04:22:45;;;;;;;;;;;2.50;44.80;;;;;;5034271;28;19917;-91
2022/03/09 04:25:11;;;;;;;;;;;2.60;44.90;;;;;;5040935;28;19923;-90
2022/03/09 04:27:37;;;;;;;;;;;2.60;45.10;;;;;;5035877;28;19921;-90
2022/03/09 04:30:03;;;;;;;;;;;2.70;45.30;;;;;;5034895;28;20356;-90
2022/03/09 04:32:29;;;;;;;;;;;2.70;45.60;;;;;;5036827;28;19940;-89
2022/03/09 04:34:54;;;;;;;;;;;2.80;45.60;;;;;;5052137;28;19909;-90
2022/03/09 04:37:20;;;;;;;;;;;2.80;45.70;;;;;;5056331;28;19921;-89
2022/03/09 04:39:46;;;;;;;;;;;2.80;45.90;;;;;;5061045;28;19976;-89
2022/03/09 04:42:11;;;;;;;;;;;2.90;45.80;;;;;;5042067;28;19939;-89
2022/03/09 04:44:37;;;;;;;;;;;2.90;45.80;;;;;;5042851;28;20276;-90
2022/03/09 04:47:03;;;;;;;;;;;3.00;45.60;;;;;;5042105;28;19980;-90
2022/03/09 04:49:28;;;;;;;;;;;2.90;45.40;;;;;;5043611;28;19924;-90
2022/03/09 04:51:54;;;;;;;;;;;2.90;45.30;;;;;;5079577;28;19921;-90
2022/03/09 04:54:19;;;;;;;;;;;2.90;45.30;;;;;;5061264;28;20002;-89
2022/03/09 04:56:45;;;;;;;;;;;2.90;45.30;;;;;;5059346;28;19925;-89
2022/03/09 04:59:14;;;;;;;;;;;2.90;45.40;;;;;;5081081;28;19996;-89
2022/03/09 05:01:39;;;;;;;;;;;2.90;45.40;;;;;;5058578;28;19920;-91
2022/03/09 05:04:05;;;;;;;;;;;2.90;45.60;;;;;;5059313;28;19909;-90
2022/03/09 05:06:31;;;;;;;;;;;2.90;45.70;;;;;;5077121;28;19908;-90
2022/03/09 05:08:56;;;;;;;;;;;2.90;45.90;;;;;;5076812;28;19958;-91
2022/03/09 05:11:22;;;;;;;;;;;3.00;46.00;;;;;;5059887;28;19965;-90
2022/03/09 05:13:50;;;;;;;;;;;3.00;46.10;;;;;;5059614;28;19912;-90
2022/03/09 05:16:16;;;;;;;;;;;3.00;46.10;;;;;;5058593;28;20006;-89
2022/03/09 05:18:41;;;;;;;;;;;3.10;46.00;;;;;;5059041;28;19947;-90
2022/03/09 05:21:07;;;;;;;;;;;3.10;46.00;;;;;;5076822;28;20006;-89
2022/03/09 05:23:33;;;;;;;;;;;3.10;46.20;;;;;;5077649;28;20015;-90
2022/03/09 05:25:59;;;;;;;;;;;3.10;46.60;;;;;;5047187;28;20355;-91
2022/03/09 05:28:24;;;;;;;;;;;3.20;46.50;;;;;;5051120;28;19920;-89
2022/03/09 05:30:50;;;;;;;;;;;3.10;46.50;;;;;;5053948;28;19916;-90
2022/03/09 05:33:15;;;;;;;;;;;3.20;46.40;;;;;;5042516;28;19923;-88
2022/03/09 05:35:41;;;;;;;;;;;3.10;46.30;;;;;;5050917;28;19912;-90
2022/03/09 05:38:06;;;;;;;;;;;3.20;46.30;;;;;;5053568;28;19963;-88
2022/03/09 05:40:32;;;;;;;;;;;3.20;46.10;;;;;;5053290;28;20015;-91
2022/03/09 05:42:57;;;;;;;;;;;3.10;46.00;;;;;;5068035;28;20347;-90
2022/03/09 05:45:23;;;;;;;;;;;3.10;45.80;;;;;;5056991;28;19996;-90
2022/03/09 05:47:48;;;;;;;;;;;3.00;45.80;;;;;;5075892;28;19923;-90
2022/03/09 05:50:14;;;;;;;;;;;3.00;45.70;;;;;;5053071;28;19916;-90
2022/03/09 05:52:39;;;;;;;;;;;3.00;45.70;;;;;;5042332;28;19924;-90
2022/03/09 05:55:05;;;;;;;;;;;2.90;45.70;;;;;;5068873;28;19956;-90
2022/03/09 05:57:30;;;;;;;;;;;2.80;45.70;;;;;;5056830;28;20273;-90
2022/03/09 05:59:56;;;;;;;;;;;2.70;45.80;;;;;;5048541;28;19913;-90
2022/03/09 06:02:22;;;;;;;;;;;2.70;46.00;;;;;;5066270;28;19917;-90
2022/03/09 06:04:47;;;;;;;;;;;2.70;46.50;;;;;;5065747;28;19916;-90
2022/03/09 06:07:13;;;;;;;;;;;2.80;47.10;;;;;;5055600;28;19917;-89
2022/03/09 06:09:38;;;;;;;;;;;3.00;47.80;;;;;;5049617;28;19920;-90
2022/03/09 06:12:04;;;;;;;;;;;3.30;48.50;;;;;;5049405;28;19982;-89
2022/03/09 06:14:29;;;;;;;;;;;3.60;48.90;;;;;;5050386;28;20033;-90
2022/03/09 06:16:55;;;;;;;;;;;3.90;49.30;;;;;;5052052;28;19924;-90
2022/03/09 06:19:20;;;;;;;;;;;4.30;49.60;;;;;;5065564;28;20279;-89
2022/03/09 06:21:46;;;;;;;;;;;4.70;49.90;;;;;;5045414;28;19956;-90
2022/03/09 06:24:12;;;;;;;;;;;5.00;50.00;;;;;;5065007;28;19908;-88
2022/03/09 06:26:38;;;;;;;;;;;5.50;50.20;;;;;;5065415;28;19999;-89
2022/03/09 06:29:04;;;;;;;;;;;5.90;50.30;;;;;;5059988;28;19959;-90
2022/03/09 06:31:31;;;;;;;;;;;6.40;50.40;;;;;;5052243;28;20356;-90
2022/03/09 06:33:56;;;;;;;;;;;6.80;50.60;;;;;;5050726;28;19954;-89
2022/03/09 06:36:22;;;;;;;;;;;7.30;50.60;;;;;;5050969;28;19945;-89
2022/03/09 06:38:47;;;;;;;;;;;7.80;50.40;;;;;;5061199;28;19908;-89
2022/03/09 06:41:13;;;;;;;;;;;8.30;50.30;;;;;;5053445;28;19915;-89
2022/03/09 06:43:38;;;;;;;;;;;8.90;50.00;;;;;;5048278;28;19908;-90
2022/03/09 06:46:04;;;;;;;;;;;9.40;49.80;;;;;;5052334;28;19909;-88
2022/03/09 06:48:30;;;;;;;;;;;9.90;49.50;;;;;;5053340;28;19924;-90
2022/03/09 06:50:55;;;;;;;;;;;10.50;49.30;;;;;;5053586;28;19948;-90
2022/03/09 06:53:21;;;;;;;;;;;11.00;48.70;;;;;;5073527;28;19916;-90
2022/03/09 06:55:48;;;;;;;;;;;11.60;48.00;;;;;;5072099;28;19916;-90
2022/03/09 06:58:14;;;;;;;;;;;12.10;47.00;;;;;;5073121;28;19928;-90
2022/03/09 07:00:41;;;;;;;;;;;12.70;46.10;;;;;;5069599;28;19913;-90
2022/03/09 07:03:06;;;;;;;;;;;13.20;45.50;;;;;;5069631;28;19917;-90
2022/03/09 07:05:32;;;;;;;;;;;13.70;44.70;;;;;;5070405;28;19982;-89
2022/03/09 07:07:58;;;;;;;;;;;14.20;44.50;;;;;;5065479;28;19916;-90
2022/03/09 07:10:24;;;;;;;;;;;14.70;44.20;;;;;;5067832;28;19922;-89
2022/03/09 07:12:49;;;;;;;;;;;15.20;43.70;;;;;;5065434;28;19940;-90
2022/03/09 07:15:15;;;;;;;;;;;15.70;42.90;;;;;;5055719;28;19930;-91
2022/03/09 07:17:40;;;;;;;;;;;16.10;42.50;;;;;;5053238;28;19921;-90
2022/03/09 07:20:06;;;;;;;;;;;16.60;41.70;;;;;;5069370;28;19935;-89
2022/03/09 07:22:32;;;;;;;;;;;17.00;40.80;;;;;;5051182;28;20361;-89
2022/03/09 07:24:57;;;;;;;;;;;17.50;40.30;;;;;;5050287;28;19909;-90
2022/03/09 07:27:23;;;;;;;;;;;17.90;39.70;;;;;;5056280;28;19916;-90
2022/03/09 07:29:48;;;;;;;;;;;18.30;39.10;;;;;;5072998;28;19913;-90
2022/03/09 07:32:14;;;;;;;;;;;18.70;38.30;;;;;;5067589;28;19979;-91
2022/03/09 07:34:40;;;;;;;;;;;19.10;37.70;;;;;;5049209;28;20284;-90
2022/03/09 07:37:05;;;;;;;;;;;19.50;37.10;;;;;;5069224;28;20007;-90
2022/03/09 07:39:31;;;;;;;;;;;20.00;36.00;;;;;;5069921;28;19913;-88
2022/03/09 07:41:58;;;;;;;;;;;20.30;35.40;;;;;;5067283;28;19986;-89
2022/03/09 07:44:24;;;;;;;;;;;20.70;34.50;;;;;;5069837;28;19920;-89
2022/03/09 07:46:49;;;;;;;;;;;21.10;33.80;;;;;;5072507;28;19913;-90
2022/03/09 07:49:15;;;;;;;;;;;21.40;33.60;;;;;;5068216;28;19948;-90
2022/03/09 07:51:41;;;;;;;;;;;21.80;32.80;;;;;;5049924;28;19924;-91
2022/03/09 07:54:06;;;;;;;;;;;22.20;32.10;;;;;;5050318;28;19915;-91
2022/03/09 07:56:34;;;;;;;;;;;22.40;30.70;;;;;;5075337;28;19915;-91
2022/03/09 07:59:00;;;;;;;;;;;22.70;30.00;;;;;;5070713;28;20345;-91
2022/03/09 08:01:26;;;;;;;;;;;22.80;29.20;;;;;;5048961;28;19919;-91
2022/03/09 08:03:51;;;;;;;;;;;23.00;29.10;;;;;;5066079;28;19913;-90
2022/03/09 08:06:17;;;;;;;;;;;23.20;28.70;;;;;;5052429;28;19930;-90
2022/03/09 08:08:42;;;;;;;;;;;23.40;28.40;;;;;;5071382;28;19912;-90
2022/03/09 08:11:08;;;;;;;;;;;23.60;28.00;;;;;;5063742;28;19959;-90
2022/03/09 08:13:34;;;;;;;;;;;23.80;27.20;;;;;;5051647;28;20338;-90
2022/03/09 08:15:59;;;;;;;;;;;24.00;26.30;;;;;;5062570;28;19909;-91
2022/03/09 08:18:24;;;;;;;;;;;24.10;26.00;;;;;;5069852;28;20443;-91
2022/03/09 08:20:50;;;;;;;;;;;24.20;25.10;;;;;;5065783;28;19917;-90
2022/03/09 08:23:17;;;;;;;;;;;24.20;24.40;;;;;;5034236;28;22244;-89
2022/03/09 08:25:43;;;;;;;;;;;24.20;23.80;;;;;;5049726;28;19999;-89
2022/03/09 08:28:08;;;;;;;;;;;24.20;23.60;;;;;;5052470;28;19916;-89
2022/03/09 08:30:34;;;;;;;;;;;24.00;23.40;;;;;;5063965;28;19944;-89
2022/03/09 08:32:59;;;;;;;;;;;24.00;23.50;;;;;;5069191;28;19987;-91
2022/03/09 08:35:25;;;;;;;;;;;24.00;23.40;;;;;;5062540;28;20316;-90
2022/03/09 08:37:50;;;;;;;;;;;24.20;23.80;;;;;;5049164;28;19929;-89
2022/03/09 08:40:15;;;;;;;;;;;24.40;23.70;;;;;;5069394;28;19924;-90
2022/03/09 08:42:41;;;;;;;;;;;24.50;23.10;;;;;;5046814;28;19917;-90
2022/03/09 08:45:06;;;;;;;;;;;24.50;23.10;;;;;;5049840;28;20007;-90
2022/03/09 08:47:32;;;;;;;;;;;24.50;22.60;;;;;;5048103;28;19917;-90
2022/03/09 08:49:57;;;;;;;;;;;24.60;22.80;;;;;;5049379;28;20015;-91
2022/03/09 08:52:23;;;;;;;;;;;24.80;22.50;;;;;;5052727;28;20391;-90
2022/03/09 08:54:53;;;;;;;;;;;24.90;22.60;;;;;;5063163;28;20391;-89
2022/03/09 08:57:19;;;;;;;;;;;24.90;21.80;;;;;;5070015;28;19970;-90
2022/03/09 08:59:46;;;;;;;;;;;25.00;22.10;;;;;;5063036;28;19913;-90
2022/03/09 09:02:12;;;;;;;;;;;25.00;20.50;;;;;;5052725;28;20010;-91
2022/03/09 09:04:37;;;;;;;;;;;24.80;19.20;;;;;;5051837;28;19912;-91
2022/03/09 09:07:03;;;;;;;;;;;24.50;19.30;;;;;;5036001;28;19916;-90
2022/03/09 09:09:28;;;;;;;;;;;24.20;20.30;;;;;;5049078;28;19919;-89
2022/03/09 09:11:54;;;;;;;;;;;24.30;20.80;;;;;;5049737;28;19970;-92
2022/03/09 09:14:20;;;;;;;;;;;24.30;21.00;;;;;;5071597;28;19978;-89
2022/03/09 09:16:45;;;;;;;;;;;24.40;20.40;;;;;;5048018;28;19913;-90
2022/03/09 09:19:11;;;;;;;;;;;24.30;19.80;;;;;;5056294;28;20335;-90
2022/03/09 09:21:37;;;;;;;;;;;24.20;20.00;;;;;;5076087;28;19909;-89
2022/03/09 09:24:02;;;;;;;;;;;24.00;20.20;;;;;;5058194;28;19931;-90
2022/03/09 09:26:28;;;;;;;;;;;23.80;19.80;;;;;;5077231;28;19951;-90
2022/03/09 09:28:53;;;;;;;;;;;23.70;20.00;;;;;;5059076;28;20360;-91
2022/03/09 09:31:19;;;;;;;;;;;23.70;20.50;;;;;;5059024;28;19916;-89
2022/03/09 09:33:44;;;;;;;;;;;23.70;20.30;;;;;;5058035;28;19964;-90
2022/03/09 09:36:10;;;;;;;;;;;23.70;20.10;;;;;;5058548;28;19912;-90
2022/03/09 09:38:35;;;;;;;;;;;23.60;19.70;;;;;;5059163;28;20362;-91
2022/03/09 09:41:01;;;;;;;;;;;23.50;19.70;;;;;;5078886;28;19909;-90
2022/03/09 09:43:26;;;;;;;;;;;23.40;19.80;;;;;;5060996;28;19916;-90
2022/03/09 09:45:52;;;;;;;;;;;23.50;20.10;;;;;;5059797;28;19908;-91
2022/03/09 09:48:19;;;;;;;;;;;23.60;20.30;;;;;;5058922;28;19912;-90
2022/03/09 09:50:45;;;;;;;;;;;23.80;20.10;;;;;;5046633;28;19966;-90
2022/03/09 09:53:11;;;;;;;;;;;23.90;20.30;;;;;;5038213;28;19975;-90
2022/03/09 09:55:38;;;;;;;;;;;24.00;20.00;;;;;;5038312;28;19917;-90
2022/03/09 09:58:03;;;;;;;;;;;24.10;20.30;;;;;;5055925;28;19974;-91
2022/03/09 10:00:29;;;;;;;;;;;24.20;19.70;;;;;;5038673;28;19921;-91
2022/03/09 10:02:54;;;;;;;;;;;24.10;20.00;;;;;;5041306;28;19963;-90
2022/03/09 10:05:20;;;;;;;;;;;24.30;20.30;;;;;;5042065;28;19974;-90
2022/03/09 10:08:03;;;;;;;;;;;24.40;20.10;;;;;;5059208;28;19916;-91
2022/03/09 10:10:29;;;;;;;;;;;24.50;20.10;;;;;;5041410;28;19928;-90
2022/03/09 10:13:11;;;;;;;;;;;24.50;19.50;;;;;;5041563;28;19909;-90
2022/03/09 10:15:37;;;;;;;;;;;24.50;19.70;;;;;;5060092;28;20405;-90
2022/03/09 10:18:16;;;;;;;;;;;24.60;19.50;;;;;;5040914;28;19994;-90
2022/03/09 10:20:41;;;;;;;;;;;24.80;19.60;;;;;;5059514;28;19956;-90
2022/03/09 10:23:08;;;;;;;;;;;24.90;19.30;;;;;;5059255;28;19915;-90
2022/03/09 10:25:34;;;;;;;;;;;25.10;19.40;;;;;;5041882;28;19917;-92
2022/03/09 10:28:04;;;;;;;;;;;25.20;19.30;;;;;;5041209;28;20392;-90
2022/03/09 10:30:30;;;;;;;;;;;25.30;19.50;;;;;;5060017;28;19967;-91
2022/03/09 10:32:57;;;;;;;;;;;25.60;19.70;;;;;;5041880;28;19944;-91
2022/03/09 10:35:31;;;;;;;;;;;25.80;19.10;;;;;;5059181;28;19963;-91
2022/03/09 10:37:57;;;;;;;;;;;26.00;18.70;;;;;;5040910;28;19948;-90
2022/03/09 10:40:26;;;;;;;;;;;26.10;18.00;;;;;;5041473;28;20004;-90
2022/03/09 10:43:08;;;;;;;;;;;26.20;18.10;;;;;;5058741;28;19920;-91
2022/03/09 10:45:33;;;;;;;;;;;26.30;18.30;;;;;;5059560;28;19966;-90
2022/03/09 10:47:58;;;;;;;;;;;26.40;17.80;;;;;;5041285;28;20303;-90
2022/03/09 10:50:28;;;;;;;;;;;26.40;18.10;;;;;;5049688;28;19920;-91
2022/03/09 10:52:54;;;;;;;;;;;26.70;18.40;;;;;;5061295;28;19909;-90
2022/03/09 10:55:28;;;;;;;;;;;26.80;18.10;;;;;;5061152;28;19958;-92
2022/03/09 10:58:06;;;;;;;;;;;27.00;17.90;;;;;;5079260;28;19909;-91
2022/03/09 11:00:40;;;;;;;;;;;27.00;17.40;;;;;;5061103;28;19920;-91
2022/03/09 11:03:11;;;;;;;;;;;27.30;17.80;;;;;;5061053;28;19915;-91
2022/03/09 11:05:46;;;;;;;;;;;27.50;17.10;;;;;;5078635;28;19977;-90
2022/03/09 11:08:11;;;;;;;;;;;27.60;17.40;;;;;;5078350;28;19913;-92
2022/03/09 11:10:37;;;;;;;;;;;27.80;17.00;;;;;;5061054;28;20008;-90
2022/03/09 11:13:03;;;;;;;;;;;28.00;17.00;;;;;;5058467;28;19908;-89
2022/03/09 11:15:29;;;;;;;;;;;28.00;16.00;;;;;;5059714;28;20448;-91
2022/03/09 11:17:54;;;;;;;;;;;27.90;15.90;;;;;;5060830;28;19912;-90
2022/03/09 11:20:20;;;;;;;;;;;27.80;15.90;;;;;;5062314;28;19917;-90
2022/03/09 11:22:45;;;;;;;;;;;27.80;15.80;;;;;;5080315;28;19908;-91
2022/03/09 11:25:11;;;;;;;;;;;27.80;15.70;;;;;;5078895;28;20364;-91
2022/03/09 11:27:44;;;;;;;;;;;27.80;15.90;;;;;;5062318;28;19915;-91
2022/03/09 11:30:20;;;;;;;;;;;27.80;15.90;;;;;;5063486;28;20296;-91
2022/03/09 11:32:46;;;;;;;;;;;27.70;14.60;;;;;;5062971;28;19908;-90
2022/03/09 11:35:31;;;;;;;;;;;27.30;15.00;;;;;;5062214;28;19917;-90
2022/03/09 11:37:56;;;;;;;;;;;27.30;15.80;;;;;;5078723;28;19909;-91
2022/03/09 11:40:22;;;;;;;;;;;27.50;16.00;;;;;;5079760;28;20306;-90
2022/03/09 11:42:47;;;;;;;;;;;27.60;15.40;;;;;;5060978;28;19909;-90
2022/03/09 11:45:16;;;;;;;;;;;27.40;14.70;;;;;;5062112;28;19921;-90
2022/03/09 11:48:03;;;;;;;;;;;27.30;14.60;;;;;;5061258;28;19996;-90
2022/03/09 11:50:30;;;;;;;;;;;27.30;14.50;;;;;;5060983;28;19920;-90
2022/03/09 11:53:06;;;;;;;;;;;27.30;14.30;;;;;;5060600;28;20000;-90
2022/03/09 11:55:33;;;;;;;;;;;27.30;14.10;;;;;;5061128;28;20011;-91
2022/03/09 11:57:58;;;;;;;;;;;27.30;14.20;;;;;;5078402;28;19955;-89
2022/03/09 12:00:24;;;;;;;;;;;27.40;14.20;;;;;;5061199;28;19920;-90
2022/03/09 12:02:56;;;;;;;;;;;27.40;14.40;;;;;;5061387;28;20271;-90
2022/03/09 12:05:25;;;;;;;;;;;27.30;13.90;;;;;;5061213;28;19924;-90
2022/03/09 12:07:51;;;;;;;;;;;27.20;13.90;;;;;;5061112;28;20000;-89
2022/03/09 12:10:18;;;;;;;;;;;27.00;13.80;;;;;;5061217;28;19928;-91
2022/03/09 12:13:02;;;;;;;;;;;26.90;13.70;;;;;;5078927;28;19908;-91
2022/03/09 12:15:28;;;;;;;;;;;26.70;13.50;;;;;;5060750;28;19912;-91
2022/03/09 12:17:53;;;;;;;;;;;26.70;14.00;;;;;;5061013;28;19915;-91
2022/03/09 12:20:29;;;;;;;;;;;26.70;14.00;;;;;;5061723;28;20004;-91
2022/03/09 12:22:54;;;;;;;;;;;26.70;14.00;;;;;;5079290;28;19918;-90
2022/03/09 12:25:39;;;;;;;;;;;26.70;14.10;;;;;;5078543;28;19917;-94
2022/03/09 12:28:23;;;;;;;;;;;26.70;13.70;;;;;;5079262;28;19920;-90
2022/03/09 12:31:07;;;;;;;;;;;26.50;13.70;;;;;;5078648;28;19927;-91
2022/03/09 12:33:34;;;;;;;;;;;26.30;13.60;;;;;;5078060;28;19919;-91
2022/03/09 12:36:15;;;;;;;;;;;26.20;13.50;;;;;;5060228;28;19920;-90
2022/03/09 12:38:51;;;;;;;;;;;26.10;13.30;;;;;;5060088;28;20271;-91
2022/03/09 12:41:27;;;;;;;;;;;25.90;13.30;;;;;;5059925;28;19924;-90
2022/03/09 12:43:54;;;;;;;;;;;25.80;13.80;;;;;;5060380;28;20311;-89
2022/03/09 12:46:21;;;;;;;;;;;25.80;13.90;;;;;;5061260;28;19916;-90
2022/03/09 12:48:46;;;;;;;;;;;25.90;14.30;;;;;;5043626;28;19916;-90
2022/03/09 12:51:12;;;;;;;;;;;26.00;13.90;;;;;;5058959;28;19943;-90
2022/03/09 12:53:37;;;;;;;;;;;25.90;14.00;;;;;;5059549;28;19915;-91
2022/03/09 12:56:16;;;;;;;;;;;25.80;14.40;;;;;;5058868;28;19960;-89
2022/03/09 12:58:42;;;;;;;;;;;25.80;14.50;;;;;;5060000;28;19912;-91
2022/03/09 13:01:12;;;;;;;;;;;25.60;14.10;;;;;;5076451;28;20322;-90
2022/03/09 13:03:38;;;;;;;;;;;25.50;14.10;;;;;;5076718;28;19908;-90
2022/03/09 13:06:05;;;;;;;;;;;25.50;14.60;;;;;;5059873;28;19952;-91
2022/03/09 13:08:33;;;;;;;;;;;25.50;14.90;;;;;;5058971;28;19919;-91
2022/03/09 13:10:59;;;;;;;;;;;25.40;15.10;;;;;;5077737;28;19923;-90
2022/03/09 13:13:28;;;;;;;;;;;25.20;15.00;;;;;;5058466;28;20288;-90
2022/03/09 13:15:59;;;;;;;;;;;24.90;15.30;;;;;;5038872;28;19944;-91
2022/03/09 13:18:31;;;;;;;;;;;24.80;15.70;;;;;;5038885;28;20280;-91
2022/03/09 13:20:57;;;;;;;;;;;24.30;15.90;;;;;;5057223;28;19917;-90
2022/03/09 13:23:30;;;;;;;;;;;23.50;15.90;;;;;;5057699;28;20380;-90
2022/03/09 13:26:11;;;;;;;;;;;22.90;16.10;;;;;;5057997;28;19952;-90
2022/03/09 13:28:36;;;;;;;;;;;22.20;16.00;;;;;;5039608;28;19925;-89
2022/03/09 13:31:02;;;;;;;;;;;21.70;16.50;;;;;;5039354;28;19936;-91
2022/03/09 13:33:27;;;;;;;;;;;21.20;17.10;;;;;;5039351;28;20228;-92
2022/03/09 13:35:53;;;;;;;;;;;20.80;17.50;;;;;;5056389;28;19920;-89
2022/03/09 13:38:26;;;;;;;;;;;20.50;18.00;;;;;;5039620;28;19913;-89
2022/03/09 13:40:52;;;;;;;;;;;20.20;18.30;;;;;;5057163;28;20027;-90
2022/03/09 13:43:18;;;;;;;;;;;20.00;18.50;;;;;;5039345;28;20006;-90
2022/03/09 13:45:44;;;;;;;;;;;19.80;18.60;;;;;;5039550;28;19913;-90
2022/03/09 13:48:24;;;;;;;;;;;19.60;18.90;;;;;;5058711;28;19913;-90
2022/03/09 13:50:59;;;;;;;;;;;19.50;19.00;;;;;;5040198;28;19917;-90
2022/03/09 13:53:29;;;;;;;;;;;19.30;19.10;;;;;;5062060;28;19919;-90
2022/03/09 13:55:54;;;;;;;;;;;19.20;19.50;;;;;;5040797;28;19905;-90
2022/03/09 13:58:23;;;;;;;;;;;19.10;19.60;;;;;;5041324;28;20481;-90
2022/03/09 14:00:49;;;;;;;;;;;19.10;19.70;;;;;;5039891;28;20003;-90
2022/03/09 14:03:16;;;;;;;;;;;19.10;19.70;;;;;;5057058;28;19975;-90
2022/03/09 14:05:43;;;;;;;;;;;19.00;19.60;;;;;;5039541;28;19916;-89
2022/03/09 14:08:09;;;;;;;;;;;18.90;19.60;;;;;;5039502;28;20365;-89
2022/03/09 14:10:37;;;;;;;;;;;18.80;19.80;;;;;;5058691;28;20039;-90
2022/03/09 14:13:10;;;;;;;;;;;18.80;19.70;;;;;;5040722;28;19915;-89
2022/03/09 14:15:35;;;;;;;;;;;18.70;19.80;;;;;;5057343;28;19917;-90
2022/03/09 14:18:02;;;;;;;;;;;18.70;19.70;;;;;;5076843;28;20271;-90
2022/03/09 14:20:27;;;;;;;;;;;18.70;19.80;;;;;;5059910;28;20253;-90
2022/03/09 14:22:53;;;;;;;;;;;18.70;19.70;;;;;;5078892;28;19916;-90